sim
Sign-in with your pilot id or email,
or register
Callsign
Passwort

LiveFlight Tracker

Flight Info OET518101

Flight: OET518101 PIC: Taco Vree
Departure: PASC Arrival: PAHO
Registration: D-ABFM
Current Alt: 33778 FT GS: 454 KT
Last Info: 2020-03-28 21:36:51
Distance: 457 NM Status: Climbing

ACARS Info OET518101

Pilot Flight Time ALT GS Latitude Longitude
OEO0810 OET518101 2020-03-28 21:36:51 33778 454 67.141154642835 -148.557392536
OEO0810 OET518101 2020-03-28 21:36:36 33793 454 67.172632400993 -148.55033486952
OEO0810 OET518101 2020-03-28 21:36:21 33800 454 67.195722490619 -148.54508058642
OEO0810 OET518101 2020-03-28 21:36:06 33800 454 67.2275073383 -148.53768754697
OEO0810 OET518101 2020-03-28 21:35:51 33800 454 67.259050540786 -148.53009093587
OEO0810 OET518101 2020-03-28 21:35:36 33800 454 67.29057938273 -148.52216279379
OEO0810 OET518101 2020-03-28 21:35:21 33799 454 67.322025610527 -148.51387158447
OEO0810 OET518101 2020-03-28 21:35:06 33800 454 67.353632155931 -148.5051757398
OEO0810 OET518101 2020-03-28 21:34:51 33800 454 67.385097414526 -148.49637055874
OEO0810 OET518101 2020-03-28 21:34:36 33800 454 67.416939451891 -148.48768586649
OEO0810 OET518101 2020-03-28 21:34:21 33801 454 67.448430840968 -148.47998952396
OEO0810 OET518101 2020-03-28 21:34:06 33801 456 67.480218588861 -148.47412634016
OEO0810 OET518101 2020-03-28 21:33:51 33800 456 67.511908400222 -148.47135130901
OEO0810 OET518101 2020-03-28 21:33:36 33799 456 67.543811342848 -148.47134501243
OEO0810 OET518101 2020-03-28 21:33:21 33799 456 67.57570830044 -148.47121689302
OEO0810 OET518101 2020-03-28 21:33:06 33799 456 67.607484731844 -148.47094742071
OEO0810 OET518101 2020-03-28 21:32:51 33799 456 67.639440962877 -148.47061386202
OEO0810 OET518101 2020-03-28 21:32:36 33799 456 67.671059413023 -148.47022384755
OEO0810 OET518101 2020-03-28 21:32:21 33799 456 67.702808832872 -148.46979007717
OEO0810 OET518101 2020-03-28 21:32:06 33799 456 67.734629756285 -148.46936591176
OEO0810 OET518101 2020-03-28 21:31:51 33799 456 67.766318533677 -148.46894265347
OEO0810 OET518101 2020-03-28 21:31:36 33799 456 67.797909772412 -148.46849650338
OEO0810 OET518101 2020-03-28 21:31:21 33799 456 67.829655280086 -148.46804037481
OEO0810 OET518101 2020-03-28 21:31:06 33799 456 67.861442086313 -148.46757138627
OEO0810 OET518101 2020-03-28 21:30:51 33800 456 67.893145987491 -148.46707955929
OEO0810 OET518101 2020-03-28 21:30:36 33800 456 67.92493373786 -148.46655699646
OEO0810 OET518101 2020-03-28 21:30:21 33800 456 67.956468935519 -148.46603438027
OEO0810 OET518101 2020-03-28 21:30:06 33800 456 67.988248359563 -148.46550173223
OEO0810 OET518101 2020-03-28 21:29:51 33800 456 68.020014581343 -148.46496161368
OEO0810 OET518101 2020-03-28 21:29:36 33800 456 68.051767671937 -148.46441888044
OEO0810 OET518101 2020-03-28 21:29:21 33800 456 68.083525868782 -148.46387113129
OEO0810 OET518101 2020-03-28 21:29:06 33800 456 68.11516810942 -148.46332140778
OEO0810 OET518101 2020-03-28 21:28:51 33802 456 68.146946761388 -148.46276784229
OEO0810 OET518101 2020-03-28 21:28:36 33807 456 68.178767390789 -148.4622164646
OEO0810 OET518101 2020-03-28 21:28:21 33836 458 68.210452230334 -148.46167084988
OEO0810 OET518101 2020-03-28 21:28:06 33997 456 68.242154837727 -148.4610936989
OEO0810 OET518101 2020-03-28 21:27:51 34006 462 68.274131202542 -148.46048773305
OEO0810 OET518101 2020-03-28 21:27:36 33993 452 68.305956611453 -148.45988069999
OEO0810 OET518101 2020-03-28 21:27:21 33966 452 68.337225532552 -148.45931913037
OEO0810 OET518101 2020-03-28 21:27:06 33936 452 68.368817419654 -148.45874838269
OEO0810 OET518101 2020-03-28 21:26:51 33904 452 68.400329820649 -148.45818398495
OEO0810 OET518101 2020-03-28 21:26:36 33871 452 68.431801624053 -148.45763207365
OEO0810 OET518101 2020-03-28 21:26:21 33844 456 68.463385444382 -148.45705983186
OEO0810 OET518101 2020-03-28 21:26:06 33823 454 68.494918677056 -148.45644372745
OEO0810 OET518101 2020-03-28 21:25:51 33696 452 68.526429273469 -148.45584587246
OEO0810 OET518101 2020-03-28 21:25:36 33514 450 68.557854897996 -148.45526557318
OEO0810 OET518101 2020-03-28 21:25:21 33346 449 68.589093077119 -148.45469962798
OEO0810 OET518101 2020-03-28 21:25:06 33161 447 68.620331273747 -148.4541468629
OEO0810 OET518101 2020-03-28 21:24:51 32965 447 68.65114505501 -148.45362771516
OEO0810 OET518101 2020-03-28 21:24:36 32772 445 68.682189916865 -148.4531293248
OEO0810 OET518101 2020-03-28 21:24:21 32573 443 68.713048294376 -148.45259902464
OEO0810 OET518101 2020-03-28 21:24:06 32360 441 68.743861507078 -148.45200762631
OEO0810 OET518101 2020-03-28 21:23:51 32157 439 68.774320750294 -148.45135128782
OEO0810 OET518101 2020-03-28 21:23:35 31954 437 68.804887773732 -148.45058502597
OEO0810 OET518101 2020-03-28 21:23:21 31731 435 68.835577998352 -148.44965905509
OEO0810 OET518101 2020-03-28 21:23:06 31499 435 68.86586108982 -148.44854504056
OEO0810 OET518101 2020-03-28 21:22:51 31270 433 68.895812664334 -148.44722548003
OEO0810 OET518101 2020-03-28 21:22:36 31026 431 68.926011702706 -148.4457933281
OEO0810 OET518101 2020-03-28 21:22:21 30785 429 68.955871474484 -148.44438332093
OEO0810 OET518101 2020-03-28 21:22:05 30541 427 68.985674161279 -148.44330697916
OEO0810 OET518101 2020-03-28 21:21:51 30282 425 69.015374451886 -148.44304497737
OEO0810 OET518101 2020-03-28 21:21:36 30012 423 69.04468814504 -148.44413092409
OEO0810 OET518101 2020-03-28 21:21:20 29751 421 69.07404799066 -148.44556120839
OEO0810 OET518101 2020-03-28 21:21:05 29491 417 69.103294472603 -148.44677121909
OEO0810 OET518101 2020-03-28 21:20:51 29207 415 69.132130322729 -148.44790252254
OEO0810 OET518101 2020-03-28 21:20:35 28915 414 69.161250785845 -148.44900863966
OEO0810 OET518101 2020-03-28 21:20:20 28626 412 69.189915678415 -148.45010499174
OEO0810 OET518101 2020-03-28 21:20:06 28329 408 69.218467563241 -148.45119051157
OEO0810 OET518101 2020-03-28 21:19:50 28015 406 69.246538914975 -148.45220292703
OEO0810 OET518101 2020-03-28 21:19:35 27693 402 69.274666240873 -148.45316907863
OEO0810 OET518101 2020-03-28 21:19:20 27368 400 69.302586779641 -148.45407199762
OEO0810 OET518101 2020-03-28 21:19:05 27029 398 69.33037914119 -148.45483804603
OEO0810 OET518101 2020-03-28 21:18:50 26681 394 69.357712661061 -148.45539742785
OEO0810 OET518101 2020-03-28 21:18:35 26315 392 69.38510321686 -148.45576391019
OEO0810 OET518101 2020-03-28 21:18:20 25945 388 69.412269103357 -148.45584149687
OEO0810 OET518101 2020-03-28 21:18:05 25566 384 69.439193322771 -148.45559779785
OEO0810 OET518101 2020-03-28 21:17:50 25184 382 69.465887752011 -148.45518638568
OEO0810 OET518101 2020-03-28 21:17:35 24798 379 69.492335272395 -148.45487331755
OEO0810 OET518101 2020-03-28 21:17:20 24389 375 69.518441369898 -148.45505677216
OEO0810 OET518101 2020-03-28 21:17:05 23964 371 69.544520911719 -148.45556780905
OEO0810 OET518101 2020-03-28 21:16:50 23526 367 69.570259056117 -148.45607484388
OEO0810 OET518101 2020-03-28 21:16:35 23070 363 69.59579903631 -148.45658518707
OEO0810 OET518101 2020-03-28 21:16:20 22583 359 69.620779443756 -148.45708854
OEO0810 OET518101 2020-03-28 21:16:05 22081 357 69.645692481913 -148.45760267182
OEO0810 OET518101 2020-03-28 21:15:50 21563 353 69.67033344716 -148.45813355894
OEO0810 OET518101 2020-03-28 21:15:35 21020 349 69.694906553517 -148.45870073145
OEO0810 OET518101 2020-03-28 21:15:20 20457 346 69.71919450594 -148.45932158497
OEO0810 OET518101 2020-03-28 21:15:05 19882 342 69.742945335082 -148.46001906468
OEO0810 OET518101 2020-03-28 21:14:50 19279 338 69.766716138844 -148.46083863402
OEO0810 OET518101 2020-03-28 21:14:36 18660 334 69.790000410277 -148.46180745366
OEO0810 OET518101 2020-03-28 21:14:21 18047 330 69.813156465236 -148.46298912975
OEO0810 OET518101 2020-03-28 21:14:05 17421 326 69.835920815185 -148.46454198393
OEO0810 OET518101 2020-03-28 21:13:50 16772 322 69.858397065596 -148.46657006987
OEO0810 OET518101 2020-03-28 21:13:35 16116 318 69.880605556643 -148.46923859276
OEO0810 OET518101 2020-03-28 21:13:20 15453 314 69.902730184971 -148.47285090906
OEO0810 OET518101 2020-03-28 21:13:05 14801 311 69.924376920095 -148.47761811429
OEO0810 OET518101 2020-03-28 21:12:50 14132 307 69.945727214654 -148.48391730962
OEO0810 OET518101 2020-03-28 21:12:35 13453 303 69.966543912969 -148.4920608161
OEO0810 OET518101 2020-03-28 21:12:20 12764 297 69.987127932247 -148.50260524079
OEO0810 OET518101 2020-03-28 21:12:05 12114 291 70.007076641715 -148.5157907609
OEO0810 OET518101 2020-03-28 21:11:50 11573 279 70.026182424362 -148.53171475998
OEO0810 OET518101 2020-03-28 21:11:35 10918 270 70.04395015648 -148.54980713068
OEO0810 OET518101 2020-03-28 21:11:20 10098 268 70.061323796127 -148.56973722247
OEO0810 OET518101 2020-03-28 21:11:05 9256 264 70.0785569853 -148.58883352426
OEO0810 OET518101 2020-03-28 21:10:50 8404 260 70.095603291796 -148.6073601189
OEO0810 OET518101 2020-03-28 21:10:35 7558 254 70.112242720263 -148.62555979827
OEO0810 OET518101 2020-03-28 21:10:20 6783 244 70.128440851606 -148.64351727274
OEO0810 OET518101 2020-03-28 21:10:05 6204 225 70.143635100246 -148.66047148312
OEO0810 OET518101 2020-03-28 21:09:50 5656 204 70.157640009684 -148.67579904127
OEO0810 OET518101 2020-03-28 21:09:35 5087 178 70.170659764083 -148.67473433217
OEO0810 OET518101 2020-03-28 21:09:20 4236 173 70.178883524772 -148.65002617621
OEO0810 OET518101 2020-03-28 21:09:05 3348 171 70.182058739641 -148.61693779728
OEO0810 OET518101 2020-03-28 21:08:50 2367 174 70.18504541856 -148.58342648797
OEO0810 OET518101 2020-03-28 21:08:35 1579 174 70.18796442796 -148.54863937403
OEO0810 OET518101 2020-03-28 21:08:20 1305 138 70.190585413214 -148.51853851692
OEO0810 OET518101 2020-03-28 21:08:05 590 130 70.193024706139 -148.49250258285
OEO0810 OET518101 2020-03-28 21:07:50 65 124 70.194619311004 -148.46714683958
OEO0810 OET518101 2020-03-28 21:07:35 59 66 70.196442091114 -148.44703641479
OEO0810 OET518101 2020-03-28 21:07:20 59 1 70.196927152833 -148.44121389196
OEO0810 OET518101 2020-03-28 21:07:05 59 1 70.197078619881 -148.44068996843
OEO0810 OET518101 2020-03-28 21:06:50 59 15 70.198046061738 -148.44124622864
OEO0810 OET518101 2020-03-28 21:06:35 59 15 70.198466226182 -148.44372051803
OEO0810 OET518101 2020-03-28 21:06:20 59 11 70.198221806181 -148.44655419276
OEO0810 OET518101 2020-03-28 21:06:05 59 7 70.198029025342 -148.44872341815
OEO0810 OET518101 2020-03-28 21:05:51 59 7 70.198501117135 -148.44975787164
OEO0810 OET518101 2020-03-28 21:05:35 59 0 70.198568782522 -148.45055428237
OEO0810 OET518101 2020-03-28 21:05:20 59 0 70.198583164802 -148.45070678769
OEO0810 OET518101 2020-03-28 21:05:05 59 0 70.198632452027 -148.45080582543
OEO0810 OET518101 2020-03-28 21:04:50 59 0 70.19863368551 -148.45080678593
OEO0810 OET518101 2020-03-28 21:04:35 59 0 70.198633685613 -148.45080678593
OEO0810 OET518101 2020-03-28 21:04:20 59 0 70.198633685895 -148.45080678593
OEO0810 OET518101 2020-03-28 21:04:05 59 0 70.198633684855 -148.45080678593
OEO0810 OET518101 2020-03-28 21:03:50 59 0 70.198633684849 -148.45080678593
OEO0810 OET518101 2020-03-28 21:03:35 59 0 70.198633624948 -148.45080667921
OEO0810 OET518101 2020-03-28 21:03:20 59 0 70.198633684897 -148.45080678593
OEO0810 OET518101 2020-03-28 21:03:05 59 0 70.198633684775 -148.45080678593
OEO0810 OET518101 2020-03-28 21:02:50 59 0 70.198633684267 -148.45080678593
OEO0810 OET518101 2020-03-28 21:02:35 59 0 70.198633684769 -148.45080678593
OEO0810 OET518101 2020-03-28 21:02:20 59 0 70.198633674808 -148.45080678593
OEO0810 OET518101 2020-03-28 21:02:06 59 0 70.198633674988 -148.45080678593
OEO0810 OET518101 2020-03-28 21:01:50 59 0 70.198633674936 -148.45080678593
OEO0810 OET518101 2020-03-28 21:01:35 59 0 70.198633687423 -148.45080678593
OEO0810 OET518101 2020-03-28 21:01:20 59 0 70.198633733872 -148.45080683929
OEO0810 OET518101 2020-03-28 21:01:05 59 0 70.198633787266 -148.45080683929
OEO0810 OET518101 2020-03-28 21:00:50 59 0 70.198633833122 -148.45080689265
OEO0810 OET518101 2020-03-28 21:00:35 59 0 70.198633871146 -148.45080694601
OEO0810 OET518101 2020-03-28 21:00:20 59 0 70.198633885348 -148.45080694601
OEO0810 OET518101 2020-03-28 21:00:05 59 0 70.198633885291 -148.45080694601
OEO0810 OET518101 2020-03-28 20:59:50 59 0 70.198633885497 -148.45080694601
OEO0810 OET518101 2020-03-28 20:59:35 59 0 70.198633885396 -148.45080694601
OEO0810 OET518101 2020-03-28 20:59:20 59 0 70.198633885423 -148.45080694601
OEO0810 OET518101 2020-03-28 20:59:05 59 0 70.198633885242 -148.45080694601
OEO0810 OET518101 2020-03-28 20:58:50 59 0 70.198633885585 -148.45080694601
OEO0810 OET518101 2020-03-28 20:58:35 59 0 70.198633885451 -148.45080694601
OEO0810 OET518101 2020-03-28 20:58:20 59 0 70.198633885514 -148.45080694601
OEO0810 OET518101 2020-03-28 20:58:05 59 0 70.198633885536 -148.45080694601
OEO0810 OET518101 2020-03-28 20:57:51 59 0 70.19863388551 -148.45080694601
OEO0810 OET518101 2020-03-28 20:57:35 59 0 70.198633885631 -148.45080694601
OEO0810 OET518101 2020-03-28 20:57:20 59 0 70.198633885404 -148.45080694601
OEO0810 OET518101 2020-03-28 20:57:05 59 0 70.198633885452 -148.45080694601
OEO0810 OET518101 2020-03-28 20:56:50 59 0 70.198633885356 -148.45080694601
OEO0810 OET518101 2020-03-28 20:56:35 59 0 70.198633885365 -148.45080694601
OEO0810 OET518101 2020-03-28 20:56:20 59 0 70.198633885535 -148.45080694601
OEO0810 OET518101 2020-03-28 20:56:05 59 0 70.198633885424 -148.45080694601
OEO0810 OET518101 2020-03-28 20:55:50 59 0 70.198633885317 -148.45080694601
OEO0810 OET518101 2020-03-28 20:55:35 59 0 70.198633885387 -148.45080694601
OEO0810 OET518101 2020-03-28 20:55:20 59 0 70.198633885418 -148.45080694601
OEO0810 OET518101 2020-03-28 20:55:05 59 0 70.19863388537 -148.45080694601
OEO0810 OET518101 2020-03-28 20:54:50 59 0 70.198633885259 -148.45080694601
OEO0810 OET518101 2020-03-28 20:54:35 59 0 70.198633885398 -148.45080694601
OEO0810 OET518101 2020-03-28 20:54:20 59 0 70.198633885362 -148.45080694601
OEO0810 OET518101 2020-03-28 20:54:05 59 0 70.198633885503 -148.45080694601
OEO0810 OET518101 2020-03-28 20:53:50 59 0 70.198633885194 -148.45080694601
OEO0810 OET518101 2020-03-28 20:53:35 59 0 70.198633885561 -148.45080694601
OEO0810 OET518101 2020-03-28 20:53:20 59 0 70.198633885315 -148.45080694601
OEO0810 OET518101 2020-03-28 20:53:05 59 0 70.198633885603 -148.45080694601
OEO0810 OET518101 2020-03-28 20:52:50 59 0 70.198633885532 -148.45080694601
OEO0810 OET518101 2020-03-28 20:52:35 59 0 70.198633885499 -148.45080694601
OEO0810 OET518101 2020-03-28 20:52:20 59 0 70.198633885496 -148.45080694601
OEO0810 OET518101 2020-03-28 20:52:05 59 0 70.198633885482 -148.45080694601
OEO0810 OET518101 2020-03-28 20:51:50 59 0 70.19863388551 -148.45080694601
OEO0810 OET518101 2020-03-28 20:51:35 59 0 70.198633885309 -148.45080694601
OEO0810 OET518101 2020-03-28 20:51:20 59 0 70.198633885277 -148.45080694601
OEO0810 OET518101 2020-03-28 20:51:05 59 0 70.1986338855 -148.45080694601
OEO0810 OET518101 2020-03-28 20:50:50 59 0 70.198633885302 -148.45080694601
OEO0810 OET518101 2020-03-28 20:50:35 59 0 70.198633885436 -148.45080694601
OEO0810 OET518101 2020-03-28 20:50:20 59 0 70.198633885389 -148.45080694601
OEO0810 OET518101 2020-03-28 20:50:05 59 0 70.198633885341 -148.45080694601
OEO0810 OET518101 2020-03-28 20:49:50 59 0 70.198633885364 -148.45080694601
OEO0810 OET518101 2020-03-28 20:49:35 59 0 70.198633885368 -148.45080694601
OEO0810 OET518101 2020-03-28 20:49:20 59 0 70.198633885317 -148.45080694601
OEO0810 OET518101 2020-03-28 20:49:05 59 0 70.198633885523 -148.45080694601
OEO0810 OET518101 2020-03-28 20:48:50 59 0 70.198633885537 -148.45080694601
OEO0810 OET518101 2020-03-28 20:48:35 59 0 70.198633885514 -148.45080694601
OEO0810 OET518101 2020-03-28 20:48:20 59 0 70.198633885291 -148.45080694601
OEO0810 OET518101 2020-03-28 20:48:05 59 0 70.198633885445 -148.45080694601
OEO0810 OET518101 2020-03-28 20:47:50 59 0 70.198633885519 -148.45080694601
OEO0810 OET518101 2020-03-28 20:47:35 59 0 70.19863388557 -148.45080694601
OEO0810 OET518101 2020-03-28 20:47:20 59 0 70.19863388523 -148.45080694601
OEO0810 OET518101 2020-03-28 20:47:05 59 0 70.198633885342 -148.45080694601
OEO0810 OET518101 2020-03-28 20:46:50 59 0 70.198633885275 -148.45080694601
OEO0810 OET518101 2020-03-28 20:46:35 59 0 70.198633885648 -148.45080694601
OEO0810 OET518101 2020-03-28 20:46:20 59 0 70.198633885249 -148.45080694601
OEO0810 OET518101 2020-03-28 20:46:05 59 0 70.198633885601 -148.45080694601
OEO0810 OET518101 2020-03-28 20:45:50 59 0 70.198633885459 -148.45080694601
OEO0810 OET518101 2020-03-28 20:45:35 59 0 70.198633885482 -148.45080694601
OEO0810 OET518101 2020-03-28 20:45:20 59 0 70.198633885435 -148.45080694601
OEO0810 OET518101 2020-03-28 20:45:05 59 0 70.198633885483 -148.45080694601
OEO0810 OET518101 2020-03-28 20:44:50 59 0 70.198633885411 -148.45080694601
OEO0810 OET518101 2020-03-28 17:51:35 36798 450 67.831100529465 -148.46983089823
OEO0810 OET518101 2020-03-28 17:51:20 36798 450 67.861929879521 -148.46942930445
OEO0810 OET518101 2020-03-28 17:51:05 36798 449 67.893223289403 -148.46899942942
OEO0810 OET518101 2020-03-28 17:50:50 36794 450 67.924607435591 -148.468528093
OEO0810 OET518101 2020-03-28 17:50:35 36781 452 67.955940516612 -148.46802009768
OEO0810 OET518101 2020-03-28 17:50:20 36665 450 67.987376227232 -148.46750681964
OEO0810 OET518101 2020-03-28 17:50:05 36514 450 68.018524105292 -148.46699466217
OEO0810 OET518101 2020-03-28 17:49:50 36367 450 68.049865368438 -148.46647017835
OEO0810 OET518101 2020-03-28 17:49:35 36242 450 68.081189923399 -148.46594398698
OEO0810 OET518101 2020-03-28 17:49:20 36122 449 68.112518704837 -148.46543913995
OEO0810 OET518101 2020-03-28 17:49:05 35898 450 68.143827958714 -148.46499971333
OEO0810 OET518101 2020-03-28 17:48:50 35436 456 68.17514339799 -148.46465521566
OEO0810 OET518101 2020-03-28 17:48:35 34725 470 68.207322575207 -148.46432651281
OEO0810 OET518101 2020-03-28 17:48:20 34463 472 68.240129800518 -148.46379626601
OEO0810 OET518101 2020-03-28 17:48:05 34322 470 68.272882401559 -148.4632361905
OEO0810 OET518101 2020-03-28 17:47:50 34156 470 68.305584398975 -148.46266875119
OEO0810 OET518101 2020-03-28 17:47:35 33990 468 68.337990254487 -148.46209789679
OEO0810 OET518101 2020-03-28 17:47:20 33817 468 68.370590608038 -148.46151386225
OEO0810 OET518101 2020-03-28 17:47:05 33639 466 68.402792437597 -148.46093820537
OEO0810 OET518101 2020-03-28 17:46:50 33449 464 68.435191748281 -148.46036548334
OEO0810 OET518101 2020-03-28 17:46:35 33271 462 68.467398379028 -148.45979436213
OEO0810 OET518101 2020-03-28 17:46:20 33087 462 68.499565579472 -148.45922697618
OEO0810 OET518101 2020-03-28 17:46:05 32893 460 68.531586591026 -148.45867303717
OEO0810 OET518101 2020-03-28 17:45:50 32693 458 68.563374586399 -148.45813073082
OEO0810 OET518101 2020-03-28 17:45:35 32493 456 68.595167954623 -148.45759381392
OEO0810 OET518101 2020-03-28 17:45:20 32284 454 68.626961622278 -148.45707311871
OEO0810 OET518101 2020-03-28 17:45:05 32076 452 68.65857803866 -148.45656330912
OEO0810 OET518101 2020-03-28 17:44:50 31863 450 68.690038972362 -148.45605269912
OEO0810 OET518101 2020-03-28 17:44:35 31644 449 68.721155754232 -148.45552512037
OEO0810 OET518101 2020-03-28 17:44:20 31413 449 68.752493552069 -148.45493777746
OEO0810 OET518101 2020-03-28 17:44:05 31173 447 68.783406786798 -148.45426777859
OEO0810 OET518101 2020-03-28 17:43:50 30935 445 68.814421180699 -148.45345760077
OEO0810 OET518101 2020-03-28 17:43:35 30694 441 68.845235020287 -148.45245847216
OEO0810 OET518101 2020-03-28 17:43:20 30438 439 68.875941316404 -148.45120603958
OEO0810 OET518101 2020-03-28 17:43:05 30178 437 68.906324281274 -148.44967010079
OEO0810 OET518101 2020-03-28 17:42:50 29906 435 68.936731074088 -148.44788133828
OEO0810 OET518101 2020-03-28 17:42:35 29642 433 68.966887696114 -148.44606979068
OEO0810 OET518101 2020-03-28 17:42:20 29377 431 68.996992313835 -148.44456864317
OEO0810 OET518101 2020-03-28 17:42:05 29091 429 69.026826978175 -148.44395109802
OEO0810 OET518101 2020-03-28 17:41:50 28793 425 69.056431622331 -148.44445706562
OEO0810 OET518101 2020-03-28 17:41:35 28506 423 69.085971832307 -148.44470972926
OEO0810 OET518101 2020-03-28 17:41:20 28203 421 69.115340945935 -148.44469457478
OEO0810 OET518101 2020-03-28 17:41:05 27877 417 69.144484116157 -148.44453347837
OEO0810 OET518101 2020-03-28 17:40:50 27554 415 69.173494162767 -148.44427531856
OEO0810 OET518101 2020-03-28 17:40:35 27231 412 69.202095106593 -148.44395291229
OEO0810 OET518101 2020-03-28 17:40:20 26884 410 69.230680641014 -148.44358258797
OEO0810 OET518101 2020-03-28 17:40:05 26524 406 69.259066712878 -148.44317480433
OEO0810 OET518101 2020-03-28 17:39:50 26163 404 69.287224916819 -148.44274839775
OEO0810 OET518101 2020-03-28 17:39:35 25783 400 69.315222265374 -148.44231382697
OEO0810 OET518101 2020-03-28 17:39:20 25392 398 69.342973006444 -148.44186853065
OEO0810 OET518101 2020-03-28 17:39:05 24993 394 69.370287301986 -148.4414196058
OEO0810 OET518101 2020-03-28 17:38:50 24573 390 69.39760323855 -148.44098210016
OEO0810 OET518101 2020-03-28 17:38:35 24137 388 69.424688168671 -148.4405424601
OEO0810 OET518101 2020-03-28 17:38:20 23699 384 69.451555709917 -148.44008451726
OEO0810 OET518101 2020-03-28 17:38:05 23245 380 69.478108256429 -148.4396215585
OEO0810 OET518101 2020-03-28 17:37:50 22779 377 69.504390311604 -148.43915406407
OEO0810 OET518101 2020-03-28 17:37:35 22299 373 69.530394790628 -148.43867194876
OEO0810 OET518101 2020-03-28 17:37:20 21799 369 69.55616719924 -148.43818465745
OEO0810 OET518101 2020-03-28 17:37:05 21285 363 69.581608441931 -148.43778135612
OEO0810 OET518101 2020-03-28 17:36:50 20737 359 69.606761479269 -148.43753557604
OEO0810 OET518101 2020-03-28 17:36:35 20167 355 69.631457157105 -148.43750729478
OEO0810 OET518101 2020-03-28 17:36:20 19577 351 69.656077717554 -148.43785638148
OEO0810 OET518101 2020-03-28 17:36:05 18962 347 69.680430263141 -148.43880358998
OEO0810 OET518101 2020-03-28 17:35:50 18333 344 69.704476511132 -148.44058184041
OEO0810 OET518101 2020-03-28 17:35:35 17718 340 69.728212980691 -148.44353755141
OEO0810 OET518101 2020-03-28 17:35:20 17079 336 69.751493290306 -148.44809013929
OEO0810 OET518101 2020-03-28 17:35:05 16412 332 69.774598174733 -148.45484540983
OEO0810 OET518101 2020-03-28 17:34:50 15756 328 69.797346433224 -148.46443051311
OEO0810 OET518101 2020-03-28 17:34:35 15105 324 69.819620899813 -148.47744426464
OEO0810 OET518101 2020-03-28 17:34:20 14477 320 69.841347517609 -148.49425576142
OEO0810 OET518101 2020-03-28 17:34:05 13883 316 69.862271009921 -148.51441735927
OEO0810 OET518101 2020-03-28 17:33:50 13371 307 69.882585715233 -148.53623212971
OEO0810 OET518101 2020-03-28 17:33:35 13164 285 69.902127922919 -148.55646669853
OEO0810 OET518101 2020-03-28 17:33:20 12649 279 69.920610209267 -148.57568178157
OEO0810 OET518101 2020-03-28 17:33:05 12041 276 69.938689507257 -148.59453916014
OEO0810 OET518101 2020-03-28 17:32:50 11413 274 69.956523705199 -148.61317834617
OEO0810 OET518101 2020-03-28 17:32:35 10773 270 69.974310367963 -148.63177321602
OEO0810 OET518101 2020-03-28 17:32:20 10136 268 69.991980850178 -148.65008543344
OEO0810 OET518101 2020-03-28 17:32:05 9494 266 70.009387444774 -148.66835733672
OEO0810 OET518101 2020-03-28 17:31:50 8851 262 70.026638904624 -148.68653385749
OEO0810 OET518101 2020-03-28 17:31:35 8206 260 70.0436651791 -148.7045482413
OEO0810 OET518101 2020-03-28 17:31:20 7579 256 70.060419261378 -148.72239880729
OEO0810 OET518101 2020-03-28 17:31:05 6990 246 70.077122232881 -148.737490884
OEO0810 OET518101 2020-03-28 17:30:50 6538 233 70.093923465218 -148.73692899422
OEO0810 OET518101 2020-03-28 17:30:35 6204 215 70.109561242023 -148.7356026035
OEO0810 OET518101 2020-03-28 17:30:20 5864 196 70.123786109238 -148.73458362465
OEO0810 OET518101 2020-03-28 17:30:05 5511 178 70.136812884209 -148.73398131402
OEO0810 OET518101 2020-03-28 17:29:50 4982 171 70.148856150791 -148.73366411043
OEO0810 OET518101 2020-03-28 17:29:35 4392 169 70.160615327618 -148.73307399276
OEO0810 OET518101 2020-03-28 17:29:20 3836 159 70.170407184789 -148.71864980717
OEO0810 OET518101 2020-03-28 17:29:05 3273 155 70.174447925458 -148.68933871736
OEO0810 OET518101 2020-03-28 17:28:50 2659 153 70.177277275218 -148.65909594706
OEO0810 OET518101 2020-03-28 17:28:35 2035 153 70.179917541304 -148.62876864541
OEO0810 OET518101 2020-03-28 17:28:20 1374 155 70.182334815645 -148.59800419273
OEO0810 OET518101 2020-03-28 17:28:05 867 147 70.184673283489 -148.56736006877
OEO0810 OET518101 2020-03-28 17:27:50 468 139 70.186883869802 -148.53870657143
OEO0810 OET518101 2020-03-28 17:27:35 289 124 70.189885339538 -148.51321774619
OEO0810 OET518101 2020-03-28 17:27:20 173 103 70.192389084574 -148.49063473956
OEO0810 OET518101 2020-03-28 17:27:05 69 114 70.194269134477 -148.46987197834
OEO0810 OET518101 2020-03-28 17:26:50 59 71 70.196144875489 -148.44943060953
OEO0810 OET518101 2020-03-28 17:26:35 59 11 70.19689937801 -148.44131954645
OEO0810 OET518101 2020-03-28 17:26:20 59 0 70.196973393956 -148.44085167849
OEO0810 OET518101 2020-03-28 17:26:05 59 5 70.197206344695 -148.44043861213
OEO0810 OET518101 2020-03-28 17:25:50 59 7 70.197652110488 -148.44073121637
OEO0810 OET518101 2020-03-28 17:25:35 59 0 70.197913592247 -148.4409274509
OEO0810 OET518101 2020-03-28 17:25:20 59 0 70.197913707559 -148.44092755763
OEO0810 OET518101 2020-03-28 17:25:05 59 0 70.197913707452 -148.44092755763
OEO0810 OET518101 2020-03-28 17:24:50 59 0 70.197913707473 -148.44092755763
OEO0810 OET518101 2020-03-28 17:24:35 59 0 70.197913702051 -148.44092755763
OEO0810 OET518101 2020-03-28 17:24:20 59 0 70.197928401005 -148.44093879008
OEO0810 OET518101 2020-03-28 17:24:05 59 1 70.197934895223 -148.44094375264
OEO0810 OET518101 2020-03-28 17:23:50 59 11 70.19851641408 -148.44252411434
OEO0810 OET518101 2020-03-28 17:23:35 59 9 70.198343017956 -148.44495077917
OEO0810 OET518101 2020-03-28 17:23:20 59 7 70.198148701034 -148.44698996416
OEO0810 OET518101 2020-03-28 17:23:05 59 5 70.198029497588 -148.44868024922
OEO0810 OET518101 2020-03-28 17:22:50 59 5 70.198450296482 -148.44932933064
OEO0810 OET518101 2020-03-28 17:22:35 59 0 70.198585186467 -148.45036180978
OEO0810 OET518101 2020-03-28 17:22:20 59 0 70.198572897853 -148.45047514823
OEO0810 OET518101 2020-03-28 17:22:05 59 1 70.198569880444 -148.45068058751
OEO0810 OET518101 2020-03-28 17:21:50 59 0 70.198620080195 -148.45079568687
OEO0810 OET518101 2020-03-28 17:21:35 59 0 70.198633674985 -148.45080678593
OEO0810 OET518101 2020-03-28 17:21:20 59 0 70.198633674847 -148.45080678593
OEO0810 OET518101 2020-03-28 17:21:05 59 0 70.198633674904 -148.45080678593
OEO0810 OET518101 2020-03-28 17:20:50 59 0 70.198633675026 -148.45080678593
OEO0810 OET518101 2020-03-28 17:20:35 59 0 70.198633674908 -148.45080678593
OEO0810 OET518101 2020-03-28 17:20:20 59 0 70.198633674904 -148.45080678593
OEO0810 OET518101 2020-03-28 17:20:05 59 0 70.1986336748 -148.45080678593
OEO0810 OET518101 2020-03-28 17:19:50 59 0 70.198633674826 -148.45080678593
OEO0810 OET518101 2020-03-28 17:19:35 59 0 70.198633677139 -148.45080678593
OEO0810 OET518101 2020-03-28 17:19:20 59 0 70.198633708044 -148.45080678593
OEO0810 OET518101 2020-03-28 17:19:05 59 0 70.198633756585 -148.45080683929
OEO0810 OET518101 2020-03-28 17:18:50 59 0 70.198633807578 -148.45080683929
OEO0810 OET518101 2020-03-28 17:18:35 59 0 70.198633848716 -148.45080689265
OEO0810 OET518101 2020-03-28 17:18:20 59 0 70.198633875335 -148.45080694601
OEO0810 OET518101 2020-03-28 17:18:05 59 0 70.198633885633 -148.45080694601
OEO0810 OET518101 2020-03-28 17:17:50 59 0 70.198633885414 -148.45080694601
OEO0810 OET518101 2020-03-28 17:17:35 59 0 70.198633885767 -148.45080694601
OEO0810 OET518101 2020-03-28 17:17:20 59 0 70.19863388559 -148.45080694601
OEO0810 OET518101 2020-03-28 17:17:05 59 0 70.198633885565 -148.45080694601
OEO0810 OET518101 2020-03-28 17:16:50 59 0 70.198633885641 -148.45080694601
OEO0810 OET518101 2020-03-28 17:16:35 59 0 70.198633885634 -148.45080694601
OEO0810 OET518101 2020-03-28 17:16:20 59 0 70.198633885514 -148.45080694601
OEO0810 OET518101 2020-03-28 17:16:05 59 0 70.198633885591 -148.45080694601
OEO0810 OET518101 2020-03-28 17:15:50 59 0 70.198633885516 -148.45080694601
OEO0810 OET518101 2020-03-28 17:15:35 59 0 70.198633885492 -148.45080694601
OEO0810 OET518101 2020-03-28 17:15:20 59 0 70.198633885333 -148.45080694601
OEO0810 OET518101 2020-03-28 17:15:05 59 0 70.198633885556 -148.45080694601
OEO0810 OET518101 2020-03-28 17:14:50 59 0 70.198633885381 -148.45080694601
OEO0810 OET518101 2020-03-28 17:14:35 59 0 70.198633885636 -148.45080694601
OEO0810 OET518101 2020-03-28 17:14:20 59 0 70.198633885377 -148.45080694601
OEO0810 OET518101 2020-03-28 17:14:05 59 0 70.19863388549 -148.45080694601
OEO0810 OET518101 2020-03-28 17:13:50 59 0 70.198633885671 -148.45080694601
OEO0810 OET518101 2020-03-28 17:13:35 59 0 70.198633885594 -148.45080694601
OEO0810 OET518101 2020-03-28 17:13:20 59 0 70.198633885413 -148.45080694601
OEO0810 OET518101 2020-03-28 17:13:05 59 0 70.198633885596 -148.45080694601
OEO0810 OET518101 2020-03-28 17:12:50 59 0 70.198633885517 -148.45080694601
OEO0810 OET518101 2020-03-28 17:12:35 59 0 70.198633885444 -148.45080694601
OEO0810 OET518101 2020-03-28 17:12:20 59 0 70.198633885582 -148.45080694601
OEO0810 OET518101 2020-03-28 17:12:05 59 0 70.198633885428 -148.45080694601
OEO0810 OET518101 2020-03-28 17:11:50 59 0 70.198633885591 -148.45080694601
OEO0810 OET518101 2020-03-28 17:11:35 59 0 70.198633885565 -148.45080694601
OEO0810 OET518101 2020-03-28 17:11:20 59 0 70.198633885331 -148.45080694601
OEO0810 OET518101 2020-03-28 17:11:05 59 0 70.198633885574 -148.45080694601
OEO0810 OET518101 2020-03-28 17:10:50 59 0 70.198633885463 -148.45080694601
OEO0810 OET518101 2020-03-28 17:10:35 59 0 70.198633885545 -148.45080694601
OEO0810 OET518101 2020-03-28 17:10:20 59 0 70.198633885407 -148.45080694601
OEO0810 OET518101 2020-03-28 17:10:05 59 0 70.198633885209 -148.45080694601
OEO0810 OET518101 2020-03-28 17:09:50 59 0 70.198633885404 -148.45080694601
OEO0810 OET518101 2020-03-28 17:09:35 59 0 70.198633885404 -148.45080694601
OEO0810 OET518101 2020-03-28 17:09:20 59 0 70.19863388564 -148.45080694601
OEO0810 OET518101 2020-03-28 17:09:05 59 0 70.198633885527 -148.45080694601
OEO0810 OET518101 2020-03-28 17:08:50 59 0 70.198633885342 -148.45080694601
OEO0810 OET518101 2020-03-28 17:08:35 59 0 70.198633885212 -148.45080694601
OEO0810 OET518101 2020-03-28 17:08:20 59 0 70.19863388527 -148.45080694601
OEO0810 OET518101 2020-03-28 17:08:05 59 0 70.198633885264 -148.45080694601
OEO0810 OET518101 2020-03-28 17:07:50 59 0 70.198633885311 -148.45080694601
OEO0810 OET518101 2020-03-28 17:07:35 59 0 70.198633885305 -148.45080694601
OEO0810 OET518101 2020-03-28 17:07:20 59 0 70.198633885597 -148.45080694601
OEO0810 OET518101 2020-03-28 17:07:05 59 0 70.198633885543 -148.45080694601
OEO0810 OET518101 2020-03-28 17:06:50 59 0 70.198633885572 -148.45080694601
OEO0810 OET518101 2020-03-28 17:06:35 59 0 70.198633885472 -148.45080694601
OEO0810 OET518101 2020-03-28 17:06:20 59 0 70.198633885583 -148.45080694601
OEO0810 OET518101 2020-03-28 17:06:05 59 0 70.198633885441 -148.45080694601
OEO0810 OET518101 2020-03-28 17:05:50 59 0 70.198633885429 -148.45080694601
OEO0810 OET518101 2020-03-28 17:05:35 59 0 70.198633885356 -148.45080694601
OEO0810 OET518101 2020-03-28 17:05:20 59 0 70.198633885437 -148.45080694601
OEO0810 OET518101 2020-03-28 17:05:05 59 0 70.19863388525 -148.45080694601
OEO0810 OET518101 2020-03-28 17:04:50 59 0 70.198633885209 -148.45080694601
OEO0810 OET518101 2020-03-28 17:04:35 59 0 70.198633885463 -148.45080694601
OEO0810 OET518101 2020-03-28 17:04:20 59 0 70.198633885358 -148.45080694601
OEO0810 OET518101 2020-03-28 17:04:05 59 0 70.198633885627 -148.45080694601
OEO0810 OET518101 2020-03-28 17:03:50 59 0 70.198633885516 -148.45080694601
OEO0810 OET518101 2020-03-28 17:03:35 59 0 70.198633885234 -148.45080694601
OEO0810 OET518101 2020-03-28 17:03:20 59 0 70.198633885293 -148.45080694601
OEO0810 OET518101 2020-03-28 17:03:05 59 0 70.198633885274 -148.45080694601
OEO0810 OET518101 2020-03-28 17:02:50 59 0 70.19863388559 -148.45080694601
OEO0810 OET518101 2020-03-28 17:02:35 59 0 70.198633885377 -148.45080694601
OEO0810 OET518101 2020-03-28 17:02:20 59 0 70.198633885383 -148.45080694601
OEO0810 OET518101 2020-03-28 17:02:05 59 0 70.198633885447 -148.45080694601
OEO0810 OET518101 2020-03-28 17:01:50 59 0 70.198633885457 -148.45080694601
OEO0810 OET518101 2020-03-28 17:01:35 59 0 70.198633885563 -148.45080694601
OEO0810 OET518101 2020-03-28 17:01:20 59 0 70.198633885569 -148.45080694601
OEO0810 OET518101 2020-03-28 17:01:05 59 0 70.19863388559 -148.45080694601
OEO0810 OET518101 2020-03-28 17:00:50 59 0 70.198633885421 -148.45080694601
OEO0810 OET518101 2020-03-28 17:00:35 59 0 70.198633885326 -148.45080694601
OEO0810 OET518101 2020-03-28 17:00:20 59 0 70.198633885306 -148.45080694601
OEO0810 OET518101 2020-03-28 17:00:05 59 0 70.198633885408 -148.45080694601
OEO0810 OET518101 2020-03-28 16:59:50 59 0 70.198633885588 -148.45080694601
OEO0810 OET518101 2020-03-28 16:59:35 59 0 70.198633885306 -148.45080694601
OEO0810 OET518101 2020-03-28 16:59:20 59 0 70.198633885549 -148.45080694601
OEO0810 OET518101 2020-03-28 16:59:05 59 0 70.198633885439 -148.45080694601
OEO0810 OET518101 2020-03-28 16:58:50 59 0 70.198633885358 -148.45080694601
OEO0810 OET518101 2020-03-28 16:58:35 59 0 70.19863388551 -148.45080694601
OEO0810 OET518101 2020-03-28 16:58:20 59 0 70.198633885311 -148.45080694601
OEO0810 OET518101 2020-03-28 16:58:05 59 0 70.198633885489 -148.45080694601
OEO0810 OET518101 2020-03-28 16:57:50 59 0 70.198633885316 -148.45080694601
OEO0810 OET518101 2020-03-28 16:57:35 59 0 70.198633885288 -148.45080694601
OEO0810 OET518101 2020-03-28 16:57:20 59 0 70.198633885398 -148.45080694601
OEO0810 OET518101 2020-03-28 16:57:05 59 0 70.198633885442 -148.45080694601
OEO0810 OET518101 2020-03-28 16:56:50 59 0 70.198633885511 -148.45080694601
OEO0810 OET518101 2020-03-28 16:56:35 59 0 70.198633885401 -148.45080694601
OEO0810 OET518101 2020-03-28 16:56:20 59 0 70.198633885571 -148.45080694601
OEO0810 OET518101 2020-03-28 16:56:05 59 0 70.198633885435 -148.45080694601
OEO0810 OET518101 2020-03-28 16:55:50 59 0 70.198633885311 -148.45080694601
OEO0810 OET518101 2020-03-28 16:55:35 59 0 70.198633885101 -148.45080694601
OEO0810 OET518101 2020-03-28 16:55:20 59 0 70.198633885546 -148.45080694601
OEO0810 OET518101 2020-03-28 16:55:05 59 0 70.198633885534 -148.45080694601
OEO0810 OET518101 2020-03-28 16:54:50 59 0 70.198633885405 -148.45080694601
OEO0810 OET518101 2020-03-28 16:54:35 59 0 70.198633885419 -148.45080694601
OEO0810 OET518101 2020-03-28 16:54:20 59 0 70.198633885342 -148.45080694601
OEO0810 OET518101 2020-03-28 16:54:05 59 0 70.198633885563 -148.45080694601
OEO0810 OET518101 2020-03-28 16:53:50 59 0 70.198633885345 -148.45080694601
OEO0810 OET518101 2020-03-28 16:53:35 59 0 70.198633885358 -148.45080694601
OEO0810 OET518101 2020-03-28 16:53:20 59 0 70.198633885326 -148.45080694601
OEO0810 OET518101 2020-03-28 16:53:05 59 0 70.198633885554 -148.45080694601
OEO0810 OET518101 2020-03-28 16:52:50 59 0 70.198633885283 -148.45080694601
OEO0810 OET518101 2020-03-28 16:52:35 59 0 70.198633885592 -148.45080694601
OEO0810 OET518101 2020-03-28 16:52:20 59 0 70.198633885332 -148.45080694601
OEO0810 OET518101 2020-03-28 16:52:05 59 0 70.198633885273 -148.45080694601
OEO0810 OET518101 2020-03-28 16:51:50 59 0 70.198633885668 -148.45080694601
OEO0810 OET518101 2020-03-28 16:51:35 59 0 70.198633885518 -148.45080694601
OEO0810 OET518101 2020-03-28 16:51:20 59 0 70.198633885461 -148.45080694601
OEO0810 OET518101 2020-03-28 16:51:05 59 0 70.198633885279 -148.45080694601
OEO0810 OET518101 2020-03-28 16:50:50 59 0 70.19863388541 -148.45080694601
OEO0810 OET518101 2020-03-28 16:50:35 59 0 70.198633885532 -148.45080694601
OEO0810 OET518101 2020-03-28 16:50:20 59 0 70.198633885456 -148.45080694601
OEO0810 OET518101 2020-03-28 16:50:05 59 0 70.198633885451 -148.45080694601
OEO0810 OET518101 2020-03-28 16:49:50 59 0 70.198633885353 -148.45080694601
OEO0810 OET518101 2020-03-28 16:49:35 59 0 70.198633885674 -148.45080694601
OEO0810 OET518101 2020-03-28 16:49:20 59 0 70.198633885409 -148.45080694601